Terminal Aerodrome Forecast
Issued by NWS Cleveland, OH

Home | Current Version | Previous Version | Graphics & Text | Print | Product List | Glossary On
Versions: 1 2 3 4 5 6 7 8 9 10 11 12 13 14 15 16 17 18 19 20 21 22 23 24 25 26 27 28 29 30 31 32 33 34 35 36 37
000
FTUS41 KCLE 040900 AAA
TAFCLE
TAF AMD
KCLE 040914Z 0409/0512 28010KT P6SM OVC022
     FM042000 30010KT P6SM OVC035
     FM042200 29010KT P6SM OVC100
     FM050100 31010KT P6SM OVC250
     FM050900 01008KT P6SM OVC250=

USA.gov is the U.S. government's official web portal to all federal, state and local government web resources and services.